Time;durP1;ratioP1;P1;durP2;ratioP2;P2;SDS_P1;SDS_P2;PMS_P1;PMS_P2;Temp;Humidity;BMP_temperature;BMP_pressure;BME280_temperature;BME280_humidity;BME280_pressure;Samples;Min_cycle;Max_cycle;Signal;HPM_P1;HPM_P2
2022/06/19 00:00:19;;;;;;;7.40;6.82;;;;;;;;;;5008894;28;20029;-73
2022/06/19 00:02:45;;;;;;;6.85;6.25;;;;;;;;;;5006553;28;20145;-71
2022/06/19 00:05:11;;;;;;;6.90;6.30;;;;;;;;;;5002503;28;20433;-71
2022/06/19 00:07:37;;;;;;;7.22;6.70;;;;;;;;;;5000584;28;20041;-71
2022/06/19 00:10:03;;;;;;;7.88;6.82;;;;;;;;;;5010160;28;20017;-71
2022/06/19 00:12:28;;;;;;;6.90;6.40;;;;;;;;;;5012136;28;20452;-72
2022/06/19 00:14:53;;;;;;;7.35;6.75;;;;;;;;;;5002416;28;20042;-72
2022/06/19 00:17:19;;;;;;;7.47;6.70;;;;;;;;;;5003301;28;20072;-71
2022/06/19 00:19:44;;;;;;;7.22;6.63;;;;;;;;;;5004259;28;20472;-71
2022/06/19 00:22:09;;;;;;;7.93;7.20;;;;;;;;;;5014289;28;20021;-71
2022/06/19 00:24:34;;;;;;;6.88;6.38;;;;;;;;;;5015242;28;20026;-71
2022/06/19 00:27:00;;;;;;;7.25;6.72;;;;;;;;;;5015796;28;20037;-71
2022/06/19 00:29:27;;;;;;;6.80;6.20;;;;;;;;;;5015706;28;20033;-72
2022/06/19 00:31:54;;;;;;;7.47;6.88;;;;;;;;;;5015610;28;20025;-71
2022/06/19 00:34:19;;;;;;;8.02;7.43;;;;;;;;;;5015963;28;20026;-72
2022/06/19 00:36:48;;;;;;;10.02;7.65;;;;;;;;;;5016101;28;20028;-72
2022/06/19 00:39:14;;;;;;;8.30;7.68;;;;;;;;;;5015626;28;20096;-71
2022/06/19 00:41:44;;;;;;;7.80;7.20;;;;;;;;;;5015477;28;20536;-71
2022/06/19 00:44:10;;;;;;;8.07;7.28;;;;;;;;;;5015679;28;20078;-70
2022/06/19 00:46:47;;;;;;;7.63;7.03;;;;;;;;;;5015354;28;20033;-71
2022/06/19 00:49:14;;;;;;;8.02;7.35;;;;;;;;;;5014173;28;20026;-71
2022/06/19 00:51:40;;;;;;;7.97;7.28;;;;;;;;;;5014885;28;20022;-71
2022/06/19 00:54:06;;;;;;;7.20;6.60;;;;;;;;;;5014971;28;20525;-71
2022/06/19 00:56:31;;;;;;;7.78;7.18;;;;;;;;;;5012977;28;20121;-71
2022/06/19 00:58:57;;;;;;;8.15;7.38;;;;;;;;;;5013437;28;20105;-71
2022/06/19 01:01:23;;;;;;;7.30;6.78;;;;;;;;;;5015240;28;20030;-71
2022/06/19 01:03:54;;;;;;;7.63;7.00;;;;;;;;;;5014702;28;20045;-71
2022/06/19 01:06:20;;;;;;;6.85;6.35;;;;;;;;;;5013639;28;20026;-71
2022/06/19 01:08:47;;;;;;;7.63;6.97;;;;;;;;;;5014629;28;20018;-71
2022/06/19 01:11:13;;;;;;;7.40;6.90;;;;;;;;;;5014859;28;20053;-71
2022/06/19 01:13:38;;;;;;;7.97;7.38;;;;;;;;;;5014457;28;20372;-71
2022/06/19 01:16:05;;;;;;;8.57;7.88;;;;;;;;;;5014989;28;20065;-71
2022/06/19 01:18:32;;;;;;;8.57;7.97;;;;;;;;;;5011555;28;20109;-71
2022/06/19 01:21:00;;;;;;;8.20;7.60;;;;;;;;;;5007031;28;20426;-71
2022/06/19 01:23:41;;;;;;;7.10;6.50;;;;;;;;;;5011808;28;20030;-71
2022/06/19 01:26:07;;;;;;;8.45;7.63;;;;;;;;;;5012136;28;20227;-73
2022/06/19 01:28:45;;;;;;;8.18;7.40;;;;;;;;;;5007231;28;20061;-71
2022/06/19 01:31:18;;;;;;;8.00;7.30;;;;;;;;;;5007822;28;20105;-71
2022/06/19 01:33:52;;;;;;;7.85;6.93;;;;;;;;;;5011543;28;20018;-72
2022/06/19 01:36:18;;;;;;;7.63;6.88;;;;;;;;;;5014088;28;20022;-71
2022/06/19 01:38:48;;;;;;;7.75;7.15;;;;;;;;;;5013988;28;20097;-71
2022/06/19 01:41:15;;;;;;;8.80;8.18;;;;;;;;;;5014079;28;20407;-70
2022/06/19 01:43:40;;;;;;;7.72;7.22;;;;;;;;;;5014237;28;20100;-71
2022/06/19 01:46:06;;;;;;;7.43;6.88;;;;;;;;;;5014556;28;20030;-71
2022/06/19 01:48:33;;;;;;;7.53;6.93;;;;;;;;;;5014226;28;20042;-70
2022/06/19 01:51:00;;;;;;;8.75;8.15;;;;;;;;;;5014565;28;20079;-70
2022/06/19 01:53:31;;;;;;;8.50;7.70;;;;;;;;;;5012281;28;20471;-70
2022/06/19 01:55:57;;;;;;;7.88;7.18;;;;;;;;;;5009413;28;20123;-70
2022/06/19 01:58:24;;;;;;;8.07;7.40;;;;;;;;;;5006564;28;20476;-70
2022/06/19 02:00:49;;;;;;;8.20;7.50;;;;;;;;;;5011091;28;20025;-70
2022/06/19 02:03:41;;;;;;;8.45;7.75;;;;;;;;;;5013676;28;20022;-70
2022/06/19 02:06:07;;;;;;;8.27;7.35;;;;;;;;;;5003337;28;20034;-71
2022/06/19 02:08:34;;;;;;;8.75;7.97;;;;;;;;;;5005241;28;20037;-70
2022/06/19 02:11:01;;;;;;;8.82;8.02;;;;;;;;;;5013680;28;20029;-70
2022/06/19 02:13:26;;;;;;;8.48;7.78;;;;;;;;;;4996785;28;20029;-70
2022/06/19 02:15:52;;;;;;;7.85;7.25;;;;;;;;;;5007369;28;20618;-69
2022/06/19 02:18:20;;;;;;;8.50;7.82;;;;;;;;;;5007557;28;20399;-71
2022/06/19 02:20:45;;;;;;;8.90;8.07;;;;;;;;;;5009959;28;20376;-68
2022/06/19 02:23:11;;;;;;;8.50;7.65;;;;;;;;;;5006701;28;20018;-74
2022/06/19 02:25:38;;;;;;;8.13;7.50;;;;;;;;;;5006007;28;20038;-75
2022/06/19 02:28:04;;;;;;;9.15;8.35;;;;;;;;;;4989533;28;20694;-73
2022/06/19 02:30:29;;;;;;;7.88;7.28;;;;;;;;;;5012008;28;20100;-74
2022/06/19 02:32:55;;;;;;;8.60;8.00;;;;;;;;;;5012058;28;20431;-73
2022/06/19 02:35:22;;;;;;;8.68;8.00;;;;;;;;;;5003424;28;20030;-73
2022/06/19 02:37:50;;;;;;;9.35;8.48;;;;;;;;;;5008565;28;20547;-73
2022/06/19 02:40:19;;;;;;;8.27;7.78;;;;;;;;;;5011178;28;20030;-74
2022/06/19 02:42:45;;;;;;;8.52;7.85;;;;;;;;;;5008205;28;20587;-73
2022/06/19 02:45:12;;;;;;;8.63;7.95;;;;;;;;;;5001993;28;20038;-73
2022/06/19 02:47:38;;;;;;;9.35;8.57;;;;;;;;;;5005253;28;20060;-74
2022/06/19 02:50:04;;;;;;;8.90;8.00;;;;;;;;;;5006140;28;20018;-74
2022/06/19 02:52:30;;;;;;;8.57;7.88;;;;;;;;;;5008336;28;20072;-73
2022/06/19 02:54:56;;;;;;;8.85;8.05;;;;;;;;;;5006400;28;20018;-73
2022/06/19 02:57:22;;;;;;;8.50;7.75;;;;;;;;;;5010950;28;20036;-74
2022/06/19 02:59:47;;;;;;;9.10;8.40;;;;;;;;;;5012256;28;20108;-73
2022/06/19 03:02:13;;;;;;;8.88;8.25;;;;;;;;;;5008120;28;20049;-74
2022/06/19 03:04:41;;;;;;;8.80;8.00;;;;;;;;;;5005287;28;20366;-73
2022/06/19 03:07:06;;;;;;;8.73;8.02;;;;;;;;;;5011892;28;20603;-73
2022/06/19 03:09:32;;;;;;;9.13;8.43;;;;;;;;;;5012730;28;20018;-73
2022/06/19 03:11:57;;;;;;;8.27;7.68;;;;;;;;;;5006573;28;20036;-73
2022/06/19 03:14:24;;;;;;;8.32;7.63;;;;;;;;;;5004615;28;20033;-73
2022/06/19 03:16:49;;;;;;;8.68;8.02;;;;;;;;;;5005273;28;20296;-66
2022/06/19 03:19:14;;;;;;;8.20;7.57;;;;;;;;;;5004360;28;20484;-67
2022/06/19 03:21:40;;;;;;;9.57;8.65;;;;;;;;;;5004697;28;20022;-72
2022/06/19 03:24:05;;;;;;;8.95;8.23;;;;;;;;;;5001140;28;20025;-69
2022/06/19 03:26:30;;;;;;;8.35;7.55;;;;;;;;;;5006301;28;20087;-73
2022/06/19 03:28:56;;;;;;;8.18;7.40;;;;;;;;;;5012636;28;20018;-73
2022/06/19 03:31:22;;;;;;;7.95;7.38;;;;;;;;;;5005712;28;20489;-68
2022/06/19 03:33:48;;;;;;;8.52;7.72;;;;;;;;;;5003893;28;20029;-68
2022/06/19 03:36:13;;;;;;;8.13;7.53;;;;;;;;;;5011785;28;20025;-68
2022/06/19 03:38:38;;;;;;;9.45;8.50;;;;;;;;;;5009513;28;20450;-68
2022/06/19 03:41:04;;;;;;;9.15;8.07;;;;;;;;;;5003176;28;20080;-68
2022/06/19 03:43:29;;;;;;;9.88;9.07;;;;;;;;;;5005028;28;20056;-68
2022/06/19 03:45:58;;;;;;;8.70;7.90;;;;;;;;;;5004705;28;20030;-69
2022/06/19 03:48:23;;;;;;;9.00;8.20;;;;;;;;;;5007893;28;20127;-69
2022/06/19 03:50:50;;;;;;;8.60;8.00;;;;;;;;;;5003397;28;20104;-68
2022/06/19 03:53:16;;;;;;;8.43;7.75;;;;;;;;;;5005078;28;20026;-68
2022/06/19 03:55:41;;;;;;;9.63;8.68;;;;;;;;;;4999217;28;20053;-68
2022/06/19 03:58:06;;;;;;;9.05;8.32;;;;;;;;;;5009043;28;20041;-69
2022/06/19 04:00:32;;;;;;;9.00;8.30;;;;;;;;;;5007909;28;20550;-70
2022/06/19 04:02:57;;;;;;;8.60;7.97;;;;;;;;;;5013376;28;20262;-68
2022/06/19 04:05:23;;;;;;;9.63;8.82;;;;;;;;;;5013183;28;20380;-70
2022/06/19 04:07:49;;;;;;;8.38;7.57;;;;;;;;;;5009899;28;20033;-69
2022/06/19 04:10:15;;;;;;;8.07;7.30;;;;;;;;;;5007916;28;20149;-69
2022/06/19 04:12:40;;;;;;;8.23;7.53;;;;;;;;;;5014098;28;20472;-66
2022/06/19 04:15:06;;;;;;;9.68;8.98;;;;;;;;;;5016741;28;20036;-69
2022/06/19 04:17:31;;;;;;;9.98;9.05;;;;;;;;;;5011993;28;20122;-68
2022/06/19 04:19:57;;;;;;;9.75;8.85;;;;;;;;;;5007605;28;20129;-69
2022/06/19 04:22:22;;;;;;;9.95;9.13;;;;;;;;;;5009990;28;20026;-67
2022/06/19 04:24:48;;;;;;;9.73;8.70;;;;;;;;;;5009904;28;20036;-66
2022/06/19 04:27:13;;;;;;;9.10;8.38;;;;;;;;;;5007006;28;20057;-70
2022/06/19 04:29:38;;;;;;;8.98;8.27;;;;;;;;;;5001852;28;20539;-66
2022/06/19 04:32:04;;;;;;;9.18;8.30;;;;;;;;;;5000822;28;20443;-65
2022/06/19 04:34:29;;;;;;;10.13;9.27;;;;;;;;;;5011075;28;20040;-68
2022/06/19 04:36:55;;;;;;;11.15;9.70;;;;;;;;;;4999109;28;20080;-71
2022/06/19 04:39:20;;;;;;;9.68;8.88;;;;;;;;;;4999221;28;20030;-66
2022/06/19 04:41:46;;;;;;;9.65;8.35;;;;;;;;;;5004793;28;20083;-65
2022/06/19 04:44:12;;;;;;;10.90;10.02;;;;;;;;;;5007567;28;20470;-66
2022/06/19 04:46:38;;;;;;;10.68;9.55;;;;;;;;;;5001144;28;20343;-65
2022/06/19 04:49:03;;;;;;;9.13;8.27;;;;;;;;;;5004690;28;20384;-65
2022/06/19 04:51:29;;;;;;;9.27;8.48;;;;;;;;;;5013536;28;20480;-66
2022/06/19 04:53:54;;;;;;;9.40;8.57;;;;;;;;;;5012706;28;20057;-65
2022/06/19 04:56:20;;;;;;;9.93;9.13;;;;;;;;;;5002616;28;20180;-66
2022/06/19 04:58:46;;;;;;;9.30;8.57;;;;;;;;;;5005242;28;20021;-65
2022/06/19 05:01:19;;;;;;;8.93;7.55;;;;;;;;;;5009893;28;20034;-65
2022/06/19 05:03:44;;;;;;;9.60;8.20;;;;;;;;;;5006162;28;20429;-65
2022/06/19 05:06:09;;;;;;;7.60;6.95;;;;;;;;;;5007033;28;20083;-66
2022/06/19 05:08:35;;;;;;;8.57;7.90;;;;;;;;;;5004610;28;20030;-66
2022/06/19 05:11:00;;;;;;;7.43;6.75;;;;;;;;;;5004986;28;20087;-66
2022/06/19 05:13:26;;;;;;;7.57;6.97;;;;;;;;;;5005238;28;20465;-65
2022/06/19 05:16:00;;;;;;;7.57;6.97;;;;;;;;;;5002858;28;20480;-66
2022/06/19 05:18:26;;;;;;;7.55;6.95;;;;;;;;;;5008971;28;20033;-66
2022/06/19 05:21:01;;;;;;;7.53;6.88;;;;;;;;;;5004582;28;20038;-65
2022/06/19 05:23:27;;;;;;;6.18;5.68;;;;;;;;;;5005050;28;20100;-66
2022/06/19 05:25:57;;;;;;;6.20;5.70;;;;;;;;;;5006767;28;20045;-65
2022/06/19 05:28:22;;;;;;;5.70;5.20;;;;;;;;;;5009345;28;20112;-65
2022/06/19 05:30:47;;;;;;;5.38;4.82;;;;;;;;;;5008656;28;20101;-65
2022/06/19 05:33:13;;;;;;;5.18;4.88;;;;;;;;;;5002473;28;20033;-65
2022/06/19 05:35:38;;;;;;;5.93;5.50;;;;;;;;;;5002800;28;20603;-65
2022/06/19 05:38:03;;;;;;;4.57;4.28;;;;;;;;;;5011725;28;20449;-66
2022/06/19 05:40:28;;;;;;;5.00;4.70;;;;;;;;;;5011816;28;20040;-66
2022/06/19 05:42:54;;;;;;;4.82;4.10;;;;;;;;;;5006143;28;20361;-65
2022/06/19 05:45:19;;;;;;;4.93;4.38;;;;;;;;;;5006620;28;20092;-65
2022/06/19 05:47:44;;;;;;;3.92;3.63;;;;;;;;;;5008101;28;20113;-65
2022/06/19 05:50:10;;;;;;;3.95;3.55;;;;;;;;;;4977745;28;20152;-66
2022/06/19 05:52:35;;;;;;;3.67;3.47;;;;;;;;;;4984866;28;20029;-66
2022/06/19 05:55:00;;;;;;;3.60;3.30;;;;;;;;;;5001170;28;20113;-66
2022/06/19 05:57:25;;;;;;;3.65;3.35;;;;;;;;;;5004376;28;20036;-66
2022/06/19 05:59:51;;;;;;;3.40;3.20;;;;;;;;;;5005991;28;20040;-65
2022/06/19 06:02:18;;;;;;;3.63;3.42;;;;;;;;;;5006007;28;20052;-66
2022/06/19 06:04:43;;;;;;;3.75;3.45;;;;;;;;;;5007522;28;20026;-65
2022/06/19 06:07:09;;;;;;;4.50;3.47;;;;;;;;;;5000751;28;20376;-65
2022/06/19 06:09:35;;;;;;;4.18;3.50;;;;;;;;;;5001096;28;20048;-65
2022/06/19 06:12:00;;;;;;;4.03;3.75;;;;;;;;;;5004041;28;20026;-64
2022/06/19 06:14:25;;;;;;;4.00;3.60;;;;;;;;;;5006700;28;20092;-65
2022/06/19 06:16:51;;;;;;;3.90;3.60;;;;;;;;;;5012917;28;20026;-63
2022/06/19 06:19:16;;;;;;;3.58;3.38;;;;;;;;;;5008682;28;20033;-63
2022/06/19 06:21:42;;;;;;;4.03;3.10;;;;;;;;;;5000947;28;20357;-64
2022/06/19 06:24:07;;;;;;;3.80;3.50;;;;;;;;;;5005354;28;20592;-62
2022/06/19 06:26:33;;;;;;;4.72;3.80;;;;;;;;;;5007328;28;20037;-63
2022/06/19 06:28:59;;;;;;;3.65;3.35;;;;;;;;;;5007673;28;20113;-62
2022/06/19 06:31:24;;;;;;;3.65;3.40;;;;;;;;;;5004053;28;20028;-63
2022/06/19 06:33:49;;;;;;;4.93;3.25;;;;;;;;;;5005511;28;20104;-62
2022/06/19 06:36:15;;;;;;;4.13;3.00;;;;;;;;;;5000816;28;20038;-63
2022/06/19 06:38:41;;;;;;;4.40;3.63;;;;;;;;;;4999621;28;20032;-64
2022/06/19 06:41:10;;;;;;;3.97;3.60;;;;;;;;;;5000803;28;20384;-62
2022/06/19 06:43:36;;;;;;;4.47;3.30;;;;;;;;;;5011304;28;20057;-62
2022/06/19 06:46:05;;;;;;;3.38;3.17;;;;;;;;;;5007918;28;20029;-62
2022/06/19 06:48:31;;;;;;;3.47;2.97;;;;;;;;;;5001676;28;20037;-63
2022/06/19 06:50:56;;;;;;;4.38;3.45;;;;;;;;;;5004668;28;20030;-65
2022/06/19 06:53:21;;;;;;;4.32;3.88;;;;;;;;;;5002201;28;20563;-64
2022/06/19 06:55:46;;;;;;;3.90;3.70;;;;;;;;;;5004900;28;20439;-65
2022/06/19 06:58:12;;;;;;;4.05;3.75;;;;;;;;;;5002738;28;20101;-65
2022/06/19 07:00:37;;;;;;;3.75;3.45;;;;;;;;;;5002862;28;20068;-66
2022/06/19 07:03:03;;;;;;;4.53;4.10;;;;;;;;;;5002469;28;20487;-66
2022/06/19 07:05:28;;;;;;;3.70;3.50;;;;;;;;;;5004607;28;20065;-66
2022/06/19 07:07:54;;;;;;;3.33;3.13;;;;;;;;;;4998324;28;20070;-65
2022/06/19 07:10:19;;;;;;;4.20;3.78;;;;;;;;;;4983833;28;20037;-64
2022/06/19 07:12:45;;;;;;;4.25;3.88;;;;;;;;;;5007754;28;20109;-64
2022/06/19 07:15:11;;;;;;;3.60;3.35;;;;;;;;;;5008398;28;20144;-65
2022/06/19 07:17:36;;;;;;;4.40;3.70;;;;;;;;;;5003814;28;20443;-64
2022/06/19 07:20:02;;;;;;;4.88;3.40;;;;;;;;;;5007687;28;20029;-65
2022/06/19 07:22:28;;;;;;;5.00;4.30;;;;;;;;;;5007241;28;20037;-65
2022/06/19 07:24:53;;;;;;;3.63;3.35;;;;;;;;;;5001413;28;20026;-65
2022/06/19 07:27:18;;;;;;;4.68;3.72;;;;;;;;;;4998218;28;20603;-65
2022/06/19 07:29:44;;;;;;;3.60;3.30;;;;;;;;;;5003001;28;20034;-65
2022/06/19 07:32:10;;;;;;;4.07;3.75;;;;;;;;;;5008403;28;20756;-65
2022/06/19 07:34:36;;;;;;;3.95;3.63;;;;;;;;;;5007686;28;20026;-65
2022/06/19 07:37:01;;;;;;;5.28;3.85;;;;;;;;;;5008702;28;20320;-64
2022/06/19 07:39:27;;;;;;;6.28;4.20;;;;;;;;;;5004213;28;20136;-65
2022/06/19 07:41:52;;;;;;;5.75;3.47;;;;;;;;;;5004105;28;20374;-65
2022/06/19 07:44:17;;;;;;;7.20;4.78;;;;;;;;;;5006776;28;20096;-64
2022/06/19 07:52:11;;;;;;;7.85;5.32;;;;;;;;;;5008447;28;20379;-65
2022/06/19 07:54:36;;;;;;;7.30;4.05;;;;;;;;;;5014516;28;20022;-66
2022/06/19 07:57:01;;;;;;;4.40;4.03;;;;;;;;;;5010452;28;20030;-65
2022/06/19 07:59:26;;;;;;;3.80;3.40;;;;;;;;;;5001810;28;20108;-65
2022/06/19 08:01:52;;;;;;;4.40;4.10;;;;;;;;;;5003661;28;20017;-65
2022/06/19 08:04:17;;;;;;;7.95;4.05;;;;;;;;;;5009293;28;20018;-65
2022/06/19 08:06:42;;;;;;;5.78;4.10;;;;;;;;;;5008846;28;20387;-66
2022/06/19 08:09:08;;;;;;;4.50;4.13;;;;;;;;;;5007318;28;20026;-65
2022/06/19 08:11:34;;;;;;;4.05;3.85;;;;;;;;;;5006508;28;20569;-65
2022/06/19 08:13:59;;;;;;;4.10;3.60;;;;;;;;;;5008964;28;20014;-65
2022/06/19 08:16:24;;;;;;;8.20;4.18;;;;;;;;;;5006030;28;20681;-65
2022/06/19 08:18:49;;;;;;;5.80;4.22;;;;;;;;;;5002613;28;20080;-65
2022/06/19 08:21:15;;;;;;;4.75;4.35;;;;;;;;;;5005400;28;20029;-65
2022/06/19 08:23:40;;;;;;;5.75;3.72;;;;;;;;;;5012207;28;20018;-65
2022/06/19 08:26:05;;;;;;;11.23;4.20;;;;;;;;;;5005075;28;20108;-65
2022/06/19 08:31:02;;;;;;;8.38;4.25;;;;;;;;;;5004721;28;20029;-65
2022/06/19 08:33:27;;;;;;;6.50;4.05;;;;;;;;;;5009416;28;20408;-64
2022/06/19 08:35:55;;;;;;;7.88;4.32;;;;;;;;;;5004903;28;20468;-65
2022/06/19 08:38:25;;;;;;;5.13;4.07;;;;;;;;;;5003663;28;20060;-64
2022/06/19 08:41:04;;;;;;;7.93;4.20;;;;;;;;;;5007522;28;20404;-65
2022/06/19 08:43:49;;;;;;;7.80;3.80;;;;;;;;;;5003333;28;20683;-64
2022/06/19 08:46:29;;;;;;;7.93;4.20;;;;;;;;;;5001909;28;20120;-65
2022/06/19 08:49:20;;;;;;;10.07;4.90;;;;;;;;;;5003767;28;20034;-65
2022/06/19 08:51:46;;;;;;;4.68;4.25;;;;;;;;;;4998175;28;20042;-64
2022/06/19 08:54:20;;;;;;;4.85;4.45;;;;;;;;;;5001021;28;20384;-65
2022/06/19 08:56:51;;;;;;;5.70;3.95;;;;;;;;;;5002401;28;20037;-65
2022/06/19 08:59:31;;;;;;;7.90;4.97;;;;;;;;;;5006469;28;20104;-67
2022/06/19 09:02:01;;;;;;;5.45;4.30;;;;;;;;;;5012317;28;20030;-65
2022/06/19 09:07:19;;;;;;;4.47;3.88;;;;;;;;;;5006080;28;20095;-64
2022/06/19 09:09:48;;;;;;;6.05;4.40;;;;;;;;;;5006175;28;20033;-65
2022/06/19 09:12:33;;;;;;;4.80;4.40;;;;;;;;;;5008243;28;20464;-64
2022/06/19 09:15:27;;;;;;;5.35;4.05;;;;;;;;;;4962797;28;20064;-64
2022/06/19 09:18:09;;;;;;;3.70;3.30;;;;;;;;;;4951658;28;20038;-64
2022/06/19 09:20:45;;;;;;;5.32;3.97;;;;;;;;;;4952012;28;20456;-64
2022/06/19 09:23:16;;;;;;;5.45;3.97;;;;;;;;;;4940576;28;20035;-64
2022/06/19 09:25:47;;;;;;;6.28;4.63;;;;;;;;;;4940379;28;20047;-64
2022/06/19 09:28:36;;;;;;;5.45;4.20;;;;;;;;;;4946970;28;20062;-65
2022/06/19 09:31:22;;;;;;;4.80;4.30;;;;;;;;;;4946854;28;20047;-64
2022/06/19 09:33:57;;;;;;;6.80;5.30;;;;;;;;;;4943868;28;20579;-65
2022/06/19 09:36:31;;;;;;;4.70;4.40;;;;;;;;;;4941557;28;20349;-65
2022/06/19 09:39:07;;;;;;;4.60;4.25;;;;;;;;;;4946172;28;20506;-64
2022/06/19 09:41:37;;;;;;;6.20;4.35;;;;;;;;;;4950375;28;20473;-64
2022/06/19 09:44:11;;;;;;;6.00;4.10;;;;;;;;;;4945185;28;20051;-64
2022/06/19 09:46:59;;;;;;;4.47;4.07;;;;;;;;;;4946929;29;20075;-63
2022/06/19 09:49:38;;;;;;;5.53;4.53;;;;;;;;;;4936649;29;20070;-64
2022/06/19 09:52:11;;;;;;;5.93;4.65;;;;;;;;;;4939933;29;20031;-64
2022/06/19 09:54:46;;;;;;;6.05;4.78;;;;;;;;;;4965122;28;20101;-64
2022/06/19 09:57:14;;;;;;;6.55;5.00;;;;;;;;;;4981493;28;20034;-64
2022/06/19 09:59:55;;;;;;;5.28;3.78;;;;;;;;;;4987536;28;20118;-64
2022/06/19 10:02:23;;;;;;;7.40;4.07;;;;;;;;;;4984016;28;20030;-64
2022/06/19 10:04:51;;;;;;;5.50;4.82;;;;;;;;;;4982328;28;20022;-64
2022/06/19 10:07:26;;;;;;;7.55;4.93;;;;;;;;;;4993285;28;20038;-64
2022/06/19 10:10:04;;;;;;;6.22;5.10;;;;;;;;;;4987529;28;20034;-63
2022/06/19 10:12:34;;;;;;;5.65;4.45;;;;;;;;;;4980918;28;20026;-64
2022/06/19 10:15:02;;;;;;;8.73;5.50;;;;;;;;;;4986478;28;20058;-63
2022/06/19 10:17:30;;;;;;;6.88;4.68;;;;;;;;;;4988138;28;20027;-64
2022/06/19 10:19:59;;;;;;;7.97;5.10;;;;;;;;;;4982483;28;20022;-64
2022/06/19 10:22:30;;;;;;;7.53;4.80;;;;;;;;;;4987251;28;20022;-64
2022/06/19 10:24:58;;;;;;;7.22;5.30;;;;;;;;;;4989852;28;20102;-64
2022/06/19 10:27:39;;;;;;;7.13;4.60;;;;;;;;;;4986149;28;20132;-64
2022/06/19 10:30:06;;;;;;;6.97;5.45;;;;;;;;;;4981447;28;20034;-64
2022/06/19 10:32:36;;;;;;;12.88;5.10;;;;;;;;;;4988158;28;20029;-64
2022/06/19 10:35:15;;;;;;;8.68;5.78;;;;;;;;;;4987639;28;20030;-64
2022/06/19 10:37:41;;;;;;;6.90;4.45;;;;;;;;;;4983984;28;20388;-65
2022/06/19 10:40:38;;;;;;;5.72;4.47;;;;;;;;;;4980870;28;20741;-66
2022/06/19 10:43:06;;;;;;;6.95;5.35;;;;;;;;;;4948815;29;20043;-63
2022/06/19 10:45:39;;;;;;;5.43;4.93;;;;;;;;;;4947217;29;20078;-64
2022/06/19 10:48:04;;;;;;;5.65;4.93;;;;;;;;;;4938271;29;20557;-64
2022/06/19 10:50:42;;;;;;;10.68;5.25;;;;;;;;;;4938858;29;20031;-63
2022/06/19 10:53:07;;;;;;;5.95;4.72;;;;;;;;;;4942830;29;20023;-64
2022/06/19 10:55:51;;;;;;;10.00;5.50;;;;;;;;;;4943266;28;20035;-64
2022/06/19 10:58:24;;;;;;;7.35;4.50;;;;;;;;;;4939009;29;20065;-64
2022/06/19 11:00:50;;;;;;;7.72;4.70;;;;;;;;;;4946666;29;20094;-64
2022/06/19 11:06:13;;;;;;;7.25;4.40;;;;;;;;;;4937476;29;20123;-64
2022/06/19 11:08:42;;;;;;;5.68;4.57;;;;;;;;;;4938690;29;20058;-64
2022/06/19 11:11:07;;;;;;;7.00;5.40;;;;;;;;;;4943440;29;20035;-64
2022/06/19 11:13:51;;;;;;;5.50;4.97;;;;;;;;;;4941277;29;20142;-64
2022/06/19 11:16:16;;;;;;;10.73;4.95;;;;;;;;;;4942588;29;20039;-63
2022/06/19 11:18:47;;;;;;;7.18;4.68;;;;;;;;;;4923850;29;20537;-64
2022/06/19 11:21:13;;;;;;;9.10;4.78;;;;;;;;;;4982652;28;20481;-64
2022/06/19 11:23:41;;;;;;;9.98;4.80;;;;;;;;;;4980163;28;20065;-64
2022/06/19 11:26:11;;;;;;;8.07;4.60;;;;;;;;;;4979928;28;20041;-64
2022/06/19 11:28:42;;;;;;;4.80;4.30;;;;;;;;;;4983789;28;20062;-63
2022/06/19 11:31:11;;;;;;;5.68;5.18;;;;;;;;;;4989330;28;20096;-63
2022/06/19 11:33:37;;;;;;;8.15;5.03;;;;;;;;;;4999403;28;20037;-64
2022/06/19 11:36:08;;;;;;;10.15;5.30;;;;;;;;;;4980255;28;20031;-63
2022/06/19 11:38:38;;;;;;;5.30;4.53;;;;;;;;;;4984447;28;20049;-63
2022/06/19 11:41:14;;;;;;;9.45;4.45;;;;;;;;;;4986774;28;20026;-63
2022/06/19 11:43:40;;;;;;;8.85;5.00;;;;;;;;;;4990011;28;20053;-63
2022/06/19 11:46:13;;;;;;;5.53;5.10;;;;;;;;;;4981946;28;20076;-64
2022/06/19 11:48:38;;;;;;;6.53;4.47;;;;;;;;;;5005412;28;20084;-62
2022/06/19 11:51:14;;;;;;;6.38;4.78;;;;;;;;;;5000373;28;20030;-65
2022/06/19 11:53:41;;;;;;;5.72;4.47;;;;;;;;;;5003510;28;20033;-65
2022/06/19 11:56:21;;;;;;;6.10;5.00;;;;;;;;;;5003964;28;20206;-65
2022/06/19 11:58:51;;;;;;;11.10;4.75;;;;;;;;;;5006235;28;20030;-65
2022/06/19 12:01:18;;;;;;;7.38;5.00;;;;;;;;;;5005417;28;20029;-66
2022/06/19 12:03:43;;;;;;;6.30;4.05;;;;;;;;;;4999544;28;20030;-68
2022/06/19 12:06:10;;;;;;;8.68;4.05;;;;;;;;;;5000192;28;20030;-68
2022/06/19 12:08:45;;;;;;;7.63;4.63;;;;;;;;;;5003102;28;20033;-67
2022/06/19 12:11:11;;;;;;;7.28;4.75;;;;;;;;;;5004763;28;20072;-67
2022/06/19 12:13:41;;;;;;;7.63;4.95;;;;;;;;;;4999909;28;20120;-64
2022/06/19 12:16:11;;;;;;;5.82;5.13;;;;;;;;;;5001152;28;20030;-65
2022/06/19 12:18:37;;;;;;;5.05;4.55;;;;;;;;;;5002829;28;20487;-65
2022/06/19 12:21:16;;;;;;;8.60;4.72;;;;;;;;;;5003739;28;20026;-64
2022/06/19 12:23:44;;;;;;;6.07;4.93;;;;;;;;;;5002580;28;20649;-65
2022/06/19 12:26:16;;;;;;;8.00;4.30;;;;;;;;;;5005249;28;20103;-65
2022/06/19 12:28:41;;;;;;;5.80;4.97;;;;;;;;;;5014960;28;20535;-64
2022/06/19 12:31:09;;;;;;;6.38;5.53;;;;;;;;;;5008183;28;20121;-65
2022/06/19 12:33:41;;;;;;;7.20;4.03;;;;;;;;;;5002088;28;20021;-65
2022/06/19 12:36:10;;;;;;;7.50;4.78;;;;;;;;;;5005644;28;20139;-65
2022/06/19 12:38:36;;;;;;;7.28;4.80;;;;;;;;;;5010099;28;20468;-64
2022/06/19 12:41:07;;;;;;;9.65;4.90;;;;;;;;;;5004565;28;20133;-64
2022/06/19 12:43:38;;;;;;;5.22;4.45;;;;;;;;;;5002473;28;20081;-64
2022/06/19 12:46:08;;;;;;;8.30;5.28;;;;;;;;;;5009740;28;20033;-65
2022/06/19 12:48:46;;;;;;;6.55;4.82;;;;;;;;;;5007837;28;20112;-63
2022/06/19 12:51:30;;;;;;;8.00;5.05;;;;;;;;;;5002243;28;20147;-63
2022/06/19 12:53:56;;;;;;;5.97;5.38;;;;;;;;;;5007000;28;20025;-64
2022/06/19 12:56:40;;;;;;;5.25;4.82;;;;;;;;;;5009630;28;20088;-65
2022/06/19 12:59:19;;;;;;;8.55;5.03;;;;;;;;;;5006506;28;20026;-64
2022/06/19 13:02:01;;;;;;;15.43;4.78;;;;;;;;;;5002794;28;20040;-64
2022/06/19 13:04:35;;;;;;;7.50;4.93;;;;;;;;;;5008432;28;20608;-64
2022/06/19 13:07:15;;;;;;;9.07;5.18;;;;;;;;;;5008228;28;20420;-64
2022/06/19 13:10:01;;;;;;;5.75;5.05;;;;;;;;;;5001217;28;20029;-63
2022/06/19 13:12:42;;;;;;;6.07;4.18;;;;;;;;;;5007340;28;20026;-64
2022/06/19 13:15:16;;;;;;;10.73;5.55;;;;;;;;;;5013851;28;20022;-65
2022/06/19 13:17:41;;;;;;;6.22;5.15;;;;;;;;;;5002786;28;20030;-65
2022/06/19 13:20:16;;;;;;;8.88;5.43;;;;;;;;;;5001330;28;20112;-65
2022/06/19 13:22:41;;;;;;;8.32;5.30;;;;;;;;;;5011132;28;20076;-63
2022/06/19 13:25:11;;;;;;;6.00;5.33;;;;;;;;;;5013539;28;20411;-63
2022/06/19 13:27:52;;;;;;;6.65;4.97;;;;;;;;;;5001670;28;20295;-65
2022/06/19 13:30:20;;;;;;;11.48;4.93;;;;;;;;;;5005809;28;20096;-65
2022/06/19 13:33:03;;;;;;;4.82;4.43;;;;;;;;;;5013457;28;20048;-65
2022/06/19 13:35:40;;;;;;;6.15;4.80;;;;;;;;;;5006990;28;20036;-64
2022/06/19 13:38:24;;;;;;;6.35;4.57;;;;;;;;;;5003116;28;20172;-65
2022/06/19 13:41:09;;;;;;;7.25;4.53;;;;;;;;;;5010501;28;20464;-65
2022/06/19 13:43:43;;;;;;;6.90;6.13;;;;;;;;;;5007802;28;20045;-65
2022/06/19 13:46:08;;;;;;;8.88;5.93;;;;;;;;;;5002327;28;20045;-65
2022/06/19 13:48:36;;;;;;;8.80;5.03;;;;;;;;;;5001544;28;20113;-64
2022/06/19 13:51:04;;;;;;;6.25;5.65;;;;;;;;;;5007106;28;20261;-63
2022/06/19 13:53:30;;;;;;;6.22;5.63;;;;;;;;;;5007841;28;20017;-65
2022/06/19 13:56:01;;;;;;;5.50;5.00;;;;;;;;;;5001552;28;20349;-66
2022/06/19 13:58:45;;;;;;;7.90;5.65;;;;;;;;;;5005973;28;20461;-66
2022/06/19 14:01:23;;;;;;;5.80;5.03;;;;;;;;;;5012448;28;20030;-66
2022/06/19 14:06:41;;;;;;;6.40;5.68;;;;;;;;;;5001294;28;20605;-66
2022/06/19 14:09:12;;;;;;;8.48;5.15;;;;;;;;;;5005358;28;20034;-68
2022/06/19 14:14:25;;;;;;;5.70;5.30;;;;;;;;;;5007152;28;20460;-69
2022/06/19 14:16:59;;;;;;;5.90;5.32;;;;;;;;;;5003230;28;20028;-68
2022/06/19 14:19:27;;;;;;;6.72;6.22;;;;;;;;;;5005583;28;20442;-69
2022/06/19 14:21:52;;;;;;;6.13;5.47;;;;;;;;;;5000475;28;20312;-69
2022/06/19 14:24:18;;;;;;;8.20;4.87;;;;;;;;;;5000473;28;20530;-69
2022/06/19 14:27:05;;;;;;;5.57;5.17;;;;;;;;;;5001803;28;20326;-67
2022/06/19 14:29:46;;;;;;;6.20;5.70;;;;;;;;;;5011327;28;20260;-66
2022/06/19 14:32:14;;;;;;;5.68;4.93;;;;;;;;;;5004408;28;20036;-68
2022/06/19 14:35:11;;;;;;;6.07;5.38;;;;;;;;;;5000768;28;20033;-67
2022/06/19 14:37:44;;;;;;;7.88;5.30;;;;;;;;;;4999962;28;20128;-66
2022/06/19 14:40:18;;;;;;;9.65;5.57;;;;;;;;;;5000062;28;20030;-65
2022/06/19 14:42:53;;;;;;;5.43;4.13;;;;;;;;;;5001178;28;20018;-67
2022/06/19 14:45:19;;;;;;;7.70;5.18;;;;;;;;;;5005338;28;20395;-65
2022/06/19 14:47:47;;;;;;;5.93;5.43;;;;;;;;;;5005864;28;20025;-69
2022/06/19 14:50:15;;;;;;;5.25;4.93;;;;;;;;;;5001926;28;20476;-68
2022/06/19 14:52:53;;;;;;;6.10;5.60;;;;;;;;;;5003853;28;20030;-68
2022/06/19 14:55:48;;;;;;;6.68;5.47;;;;;;;;;;5002546;28;20030;-68
2022/06/19 14:58:17;;;;;;;6.38;4.72;;;;;;;;;;4963946;28;20049;-68
2022/06/19 15:00:54;;;;;;;5.50;4.93;;;;;;;;;;4960715;28;20034;-68
2022/06/19 15:03:33;;;;;;;5.93;5.05;;;;;;;;;;4957066;28;20042;-67
2022/06/19 15:06:08;;;;;;;5.85;5.43;;;;;;;;;;4963322;28;20057;-69
2022/06/19 15:08:34;;;;;;;7.07;5.32;;;;;;;;;;4956421;28;20047;-68
2022/06/19 15:11:01;;;;;;;5.10;4.70;;;;;;;;;;4957154;28;20398;-69
2022/06/19 15:13:29;;;;;;;6.35;4.97;;;;;;;;;;4960667;28;20054;-67